Time;durP1;ratioP1;P1;durP2;ratioP2;P2;SDS_P1;SDS_P2;PMS_P1;PMS_P2;Temp;Humidity;BMP_temperature;BMP_pressure;BME280_temperature;BME280_humidity;BME280_pressure;Samples;Min_cycle;Max_cycle;Signal;HPM_P1;HPM_P2
2022/07/17 00:01:28;;;;;;;2.08;1.17;;;;;;;17.58;48.90;99340.88;4486032;31;20164;-71
2022/07/17 00:03:56;;;;;;;5.05;1.37;;;;;;;17.54;49.07;99342.22;4485787;31;20521;-70
2022/07/17 00:06:24;;;;;;;4.87;1.08;;;;;;;17.52;49.28;99346.88;4485583;31;20119;-70
2022/07/17 00:08:51;;;;;;;2.87;1.15;;;;;;;17.43;49.45;99348.69;4485733;31;20120;-70
2022/07/17 00:11:19;;;;;;;5.85;1.20;;;;;;;17.45;49.47;99351.16;4485588;31;20493;-71
2022/07/17 00:13:46;;;;;;;1.48;0.98;;;;;;;17.40;49.62;99354.31;4485659;31;20096;-70
2022/07/17 00:16:13;;;;;;;3.50;1.42;;;;;;;17.33;49.94;99353.31;4485100;31;20105;-70
2022/07/17 00:18:40;;;;;;;2.72;1.20;;;;;;;17.28;50.21;99358.31;4485745;32;20119;-70
2022/07/17 00:21:08;;;;;;;2.28;0.90;;;;;;;17.25;50.27;99356.81;4485387;32;20084;-70
2022/07/17 00:23:35;;;;;;;2.35;1.10;;;;;;;17.25;50.38;99361.28;4485616;31;20093;-70
2022/07/17 00:26:03;;;;;;;5.37;1.30;;;;;;;17.25;50.50;99366.56;4485449;31;20895;-70
2022/07/17 00:28:30;;;;;;;4.20;1.45;;;;;;;17.17;50.64;99359.47;4485683;31;20092;-70
2022/07/17 00:30:57;;;;;;;3.45;1.20;;;;;;;17.14;50.78;99360.59;4485373;32;20089;-70
2022/07/17 00:33:24;;;;;;;2.08;1.25;;;;;;;17.09;51.02;99365.56;4485700;32;20126;-71
2022/07/17 00:35:51;;;;;;;2.42;1.12;;;;;;;17.06;51.15;99367.72;4485439;32;20157;-70
2022/07/17 00:38:19;;;;;;;3.33;1.55;;;;;;;17.04;51.19;99370.53;4485463;31;20101;-70
2022/07/17 00:40:47;;;;;;;2.20;1.10;;;;;;;17.01;51.24;99365.56;4485249;32;20096;-70
2022/07/17 00:43:14;;;;;;;2.25;1.08;;;;;;;16.94;51.46;99375.13;4485515;31;20118;-70
2022/07/17 00:45:42;;;;;;;1.37;0.88;;;;;;;16.91;51.58;99381.59;4485072;31;20477;-70
2022/07/17 00:48:11;;;;;;;1.33;0.90;;;;;;;16.83;51.88;99377.06;4485493;31;20758;-70
2022/07/17 00:50:40;;;;;;;3.03;1.10;;;;;;;16.80;52.01;99379.22;4484163;32;20378;-70
2022/07/17 00:53:08;;;;;;;3.12;0.93;;;;;;;16.78;52.14;99376.75;4485623;31;20118;-70
2022/07/17 00:55:36;;;;;;;3.83;1.30;;;;;;;16.81;51.77;99376.41;4485301;31;20096;-70
2022/07/17 00:58:18;;;;;;;1.90;1.20;;;;;;;16.82;51.87;99377.22;4485584;31;20153;-70
2022/07/17 01:00:48;;;;;;;1.12;0.75;;;;;;;16.78;52.08;99381.22;4485340;31;20096;-70
2022/07/17 01:03:17;;;;;;;2.10;1.30;;;;;;;16.75;52.23;99389.47;4485347;31;20139;-70
2022/07/17 01:05:44;;;;;;;1.35;0.75;;;;;;;16.69;52.44;99385.66;4485192;31;20442;-70
2022/07/17 01:08:12;;;;;;;3.45;0.85;;;;;;;16.61;52.73;99377.69;4485100;31;20119;-70
2022/07/17 01:10:40;;;;;;;1.98;1.00;;;;;;;16.57;52.84;99381.66;4483141;32;20100;-70
2022/07/17 01:13:07;;;;;;;1.73;1.17;;;;;;;16.55;52.91;99384.47;4485304;31;20112;-70
2022/07/17 01:15:38;;;;;;;1.20;1.10;;;;;;;16.49;53.06;99393.84;4484875;31;20119;-70
2022/07/17 01:18:10;;;;;;;1.85;1.10;;;;;;;16.44;53.34;99400.59;4485095;31;20148;-70
2022/07/17 01:20:41;;;;;;;1.95;1.17;;;;;;;16.37;53.61;99400.41;4485403;31;20438;-70
2022/07/17 01:23:09;;;;;;;2.65;1.42;;;;;;;16.35;53.62;99396.28;4485160;31;20093;-70
2022/07/17 01:25:37;;;;;;;2.30;1.20;;;;;;;16.26;53.96;99395.41;4485344;32;20091;-70
2022/07/17 01:28:04;;;;;;;1.67;1.05;;;;;;;16.23;54.16;99398.34;4485245;31;20147;-70
2022/07/17 01:30:32;;;;;;;2.40;1.23;;;;;;;16.22;54.20;99402.00;4485377;31;20096;-70
2022/07/17 01:33:00;;;;;;;2.08;1.10;;;;;;;16.17;54.35;99409.56;4485042;31;20089;-70
2022/07/17 01:35:30;;;;;;;2.92;1.08;;;;;;;16.13;54.31;99404.59;4484006;32;20107;-70
2022/07/17 01:37:58;;;;;;;4.60;1.08;;;;;;;16.16;54.24;99407.94;4484849;31;20080;-70
2022/07/17 01:40:25;;;;;;;2.70;1.12;;;;;;;16.09;54.49;99408.56;4485182;31;20137;-70
2022/07/17 01:42:52;;;;;;;2.17;1.20;;;;;;;16.04;54.37;99410.81;4484882;31;20096;-70
2022/07/17 01:45:19;;;;;;;1.10;0.90;;;;;;;16.00;54.22;99404.19;4484731;32;20568;-70
2022/07/17 01:47:47;;;;;;;3.33;1.05;;;;;;;15.99;54.00;99415.75;4484899;31;20096;-70
2022/07/17 01:50:15;;;;;;;1.20;1.00;;;;;;;15.95;54.01;99403.84;4485115;31;20091;-70
2022/07/17 01:52:44;;;;;;;1.12;1.00;;;;;;;15.87;54.35;99415.19;4484758;31;20484;-70
2022/07/17 01:55:13;;;;;;;1.90;1.20;;;;;;;15.73;54.77;99413.06;4485046;31;20096;-70
2022/07/17 01:57:41;;;;;;;1.27;1.02;;;;;;;15.64;55.14;99427.19;4484722;31;20092;-70
2022/07/17 02:00:12;;;;;;;2.15;1.20;;;;;;;15.58;55.19;99426.03;4484987;31;20118;-70
2022/07/17 02:02:39;;;;;;;2.12;1.15;;;;;;;15.51;55.33;99425.78;4484640;32;20111;-70
2022/07/17 02:05:07;;;;;;;1.45;0.95;;;;;;;15.35;55.64;99415.94;4484875;31;20089;-70
2022/07/17 02:07:36;;;;;;;2.15;0.88;;;;;;;15.32;55.83;99423.31;4484595;31;20092;-70
2022/07/17 02:10:04;;;;;;;1.60;1.10;;;;;;;15.32;55.58;99426.81;4484835;32;20639;-71
2022/07/17 02:12:31;;;;;;;1.98;0.90;;;;;;;15.24;55.69;99424.88;4484653;31;20084;-70
2022/07/17 02:14:58;;;;;;;3.42;1.10;;;;;;;15.21;55.72;99432.28;4484675;31;20106;-71
2022/07/17 02:17:26;;;;;;;3.12;1.33;;;;;;;15.13;55.87;99434.88;4484304;32;20161;-70
2022/07/17 02:19:53;;;;;;;1.77;1.02;;;;;;;15.05;55.98;99431.16;4484228;32;20114;-70
2022/07/17 02:22:20;;;;;;;2.75;1.10;;;;;;;14.97;56.09;99433.69;4484408;31;20151;-70
2022/07/17 02:24:47;;;;;;;1.58;0.98;;;;;;;14.94;56.21;99439.28;4484803;32;20119;-70
2022/07/17 02:27:15;;;;;;;1.45;0.80;;;;;;;14.85;56.31;99441.00;4484674;32;20146;-70
2022/07/17 02:29:42;;;;;;;1.12;0.75;;;;;;;14.84;56.40;99439.34;4484492;32;20119;-70
2022/07/17 02:32:09;;;;;;;8.75;1.20;;;;;;;14.86;56.31;99447.94;4484516;31;20100;-70
2022/07/17 02:34:36;;;;;;;2.42;1.12;;;;;;;14.77;56.67;99453.28;4484556;31;20142;-70
2022/07/17 02:37:03;;;;;;;1.27;1.00;;;;;;;14.68;56.96;99449.69;4484532;32;20204;-70
2022/07/17 02:39:31;;;;;;;1.40;1.08;;;;;;;14.59;57.29;99453.19;4484452;32;20096;-70
2022/07/17 02:41:58;;;;;;;2.87;1.08;;;;;;;14.54;57.40;99454.44;4484494;31;20175;-70
2022/07/17 02:44:25;;;;;;;2.85;0.90;;;;;;;14.50;57.50;99458.38;4484212;32;20096;-70
2022/07/17 02:46:53;;;;;;;1.17;0.75;;;;;;;14.45;57.66;99455.31;4484061;31;20157;-70
2022/07/17 02:49:20;;;;;;;3.33;1.05;;;;;;;14.45;57.64;99449.22;4484534;31;20088;-70
2022/07/17 02:51:47;;;;;;;2.28;0.90;;;;;;;14.46;57.56;99448.22;4484239;32;20101;-70
2022/07/17 02:54:14;;;;;;;1.35;1.10;;;;;;;14.37;57.71;99450.78;4482860;32;20485;-70
2022/07/17 02:56:41;;;;;;;0.82;0.70;;;;;;;14.36;57.80;99446.47;4484066;32;20169;-70
2022/07/17 02:59:08;;;;;;;2.15;1.08;;;;;;;14.36;57.79;99457.00;4484262;31;20096;-71
2022/07/17 03:01:36;;;;;;;1.85;1.00;;;;;;;14.40;57.80;99459.34;4484324;32;20153;-70
2022/07/17 03:04:03;;;;;;;1.17;1.00;;;;;;;14.33;57.98;99457.31;4483964;32;20099;-70
2022/07/17 03:06:30;;;;;;;3.50;1.20;;;;;;;14.24;58.31;99455.53;4484344;31;20127;-70
2022/07/17 03:08:58;;;;;;;1.20;1.00;;;;;;;14.21;58.49;99461.09;4484034;32;20088;-70
2022/07/17 03:11:25;;;;;;;1.48;0.75;;;;;;;14.18;58.72;99464.84;4483987;32;20093;-70
2022/07/17 03:13:52;;;;;;;1.42;0.93;;;;;;;14.18;58.66;99464.03;4483704;32;20108;-70
2022/07/17 03:16:20;;;;;;;1.58;0.93;;;;;;;14.14;58.85;99462.63;4483565;32;20532;-70
2022/07/17 03:18:47;;;;;;;2.08;0.98;;;;;;;14.07;59.08;99466.84;4483612;31;20166;-70
2022/07/17 03:21:14;;;;;;;1.77;0.90;;;;;;;14.08;59.12;99466.69;4483765;32;20125;-70
2022/07/17 03:23:41;;;;;;;1.45;0.90;;;;;;;14.06;59.23;99471.25;4483728;31;20077;-70
2022/07/17 03:26:09;;;;;;;3.60;1.20;;;;;;;14.02;59.40;99469.91;4483947;31;20165;-70
2022/07/17 03:28:36;;;;;;;1.20;0.80;;;;;;;14.01;59.42;99484.84;4483702;32;20095;-70
2022/07/17 03:31:03;;;;;;;1.90;1.00;;;;;;;14.11;59.17;99479.59;4483992;32;20115;-70
2022/07/17 03:33:30;;;;;;;2.33;1.02;;;;;;;14.28;58.74;99485.09;4485285;31;20502;-70
2022/07/17 03:35:58;;;;;;;2.20;1.12;;;;;;;14.40;58.29;99491.84;4485978;32;20169;-70
2022/07/17 03:38:25;;;;;;;0.93;0.88;;;;;;;14.53;57.86;99495.00;4485981;31;20092;-70
2022/07/17 03:40:52;;;;;;;1.77;0.95;;;;;;;14.61;57.59;99496.94;4485978;32;20084;-70
2022/07/17 03:43:19;;;;;;;1.23;0.77;;;;;;;14.68;57.40;99497.16;4486225;31;20119;-70
2022/07/17 03:45:47;;;;;;;1.87;1.00;;;;;;;14.74;57.30;99501.88;4485526;32;20104;-70
2022/07/17 03:48:14;;;;;;;1.98;0.90;;;;;;;14.77;57.02;99500.75;4485883;32;20152;-70
2022/07/17 03:50:41;;;;;;;0.95;0.73;;;;;;;14.82;56.90;99499.34;4485941;31;20153;-70
2022/07/17 03:53:09;;;;;;;2.20;0.90;;;;;;;14.87;56.78;99509.47;4485923;31;20438;-70
2022/07/17 03:55:36;;;;;;;2.08;1.00;;;;;;;14.95;56.48;99509.53;4486044;31;20093;-70
2022/07/17 03:58:03;;;;;;;0.80;0.70;;;;;;;14.98;56.45;99508.41;4485932;32;20122;-70
2022/07/17 04:00:31;;;;;;;1.45;0.90;;;;;;;14.96;56.49;99516.47;4486059;32;20165;-70
2022/07/17 04:02:58;;;;;;;1.17;0.93;;;;;;;14.98;56.50;99517.16;4485869;32;20417;-70
2022/07/17 04:05:25;;;;;;;1.45;1.10;;;;;;;15.05;56.40;99518.22;4485726;31;20412;-70
2022/07/17 04:07:53;;;;;;;3.53;0.90;;;;;;;15.16;56.11;99526.94;4485847;31;20161;-70
2022/07/17 04:10:20;;;;;;;0.93;0.80;;;;;;;15.24;55.95;99524.38;4484310;32;20096;-70
2022/07/17 04:12:48;;;;;;;0.77;0.77;;;;;;;15.27;55.81;99524.06;4486153;32;20459;-70
2022/07/17 04:15:48;;;;;;;3.33;1.12;;;;;;;15.31;55.74;99525.44;4485455;31;20096;-70
2022/07/17 04:18:02;;;;;;;1.75;1.20;;;;;;;15.36;55.68;99532.91;4486127;31;20088;-71
2022/07/17 04:20:29;;;;;;;2.87;0.90;;;;;;;15.37;55.59;99531.94;4485573;31;20115;-70
2022/07/17 04:22:57;;;;;;;2.22;0.80;;;;;;;15.42;55.44;99534.97;4485349;31;20088;-70
2022/07/17 04:25:25;;;;;;;1.20;0.75;;;;;;;15.46;55.28;99535.47;4485393;31;20458;-70
2022/07/17 04:27:52;;;;;;;1.98;0.80;;;;;;;15.51;55.29;99534.06;4485660;31;20153;-70
2022/07/17 04:30:19;;;;;;;2.10;0.93;;;;;;;15.48;55.36;99531.72;4485480;32;20092;-70
2022/07/17 04:32:46;;;;;;;1.83;1.00;;;;;;;15.49;55.31;99535.19;4485522;32;20081;-70
2022/07/17 04:35:14;;;;;;;1.45;0.98;;;;;;;15.61;55.19;99539.28;4485393;32;20100;-70
2022/07/17 04:37:41;;;;;;;1.67;0.80;;;;;;;15.54;55.24;99540.84;4484318;32;20088;-70
2022/07/17 04:40:09;;;;;;;2.33;0.90;;;;;;;15.73;54.98;99545.16;4485531;32;20180;-71
2022/07/17 04:42:36;;;;;;;5.05;0.80;;;;;;;15.84;54.73;99552.06;4485523;31;20444;-70
2022/07/17 04:45:04;;;;;;;2.50;0.80;;;;;;;15.90;54.35;99551.47;4485050;32;20092;-70
2022/07/17 04:47:33;;;;;;;2.12;0.90;;;;;;;16.04;54.10;99550.91;4485434;31;20091;-70
2022/07/17 04:50:01;;;;;;;1.58;0.82;;;;;;;16.12;53.86;99556.28;4485416;32;20118;-70
2022/07/17 04:52:28;;;;;;;1.37;0.85;;;;;;;16.08;54.03;99557.56;4485610;31;20149;-70
2022/07/17 04:54:55;;;;;;;1.40;0.90;;;;;;;16.20;53.79;99557.28;4485417;31;20551;-70
2022/07/17 04:57:22;;;;;;;1.73;1.00;;;;;;;16.27;53.54;99563.62;4484734;32;20104;-70
2022/07/17 04:59:49;;;;;;;4.10;1.05;;;;;;;16.36;53.23;99561.88;4485415;31;20092;-70
2022/07/17 05:02:17;;;;;;;3.72;0.88;;;;;;;16.38;53.14;99560.75;4485483;31;20085;-70
2022/07/17 05:04:44;;;;;;;1.00;0.80;;;;;;;16.36;53.13;99567.16;4485309;31;20154;-70
2022/07/17 05:07:11;;;;;;;0.70;0.70;;;;;;;16.30;53.52;99563.31;4485546;31;20465;-70
2022/07/17 05:09:39;;;;;;;4.80;1.00;;;;;;;16.31;53.56;99565.81;4485618;32;20100;-70
2022/07/17 05:12:06;;;;;;;2.17;0.80;;;;;;;16.28;53.52;99571.41;4485281;32;20903;-70
2022/07/17 05:14:33;;;;;;;1.62;0.80;;;;;;;16.33;53.41;99578.88;4485369;31;20096;-70
2022/07/17 05:17:01;;;;;;;3.40;1.00;;;;;;;16.44;53.31;99576.00;4484861;32;20435;-70
2022/07/17 05:19:28;;;;;;;1.92;0.95;;;;;;;16.55;53.31;99576.69;4485342;31;20053;-70
2022/07/17 05:21:55;;;;;;;1.20;0.90;;;;;;;16.49;53.13;99576.34;4485185;31;20600;-70
2022/07/17 05:24:22;;;;;;;1.12;0.90;;;;;;;16.59;53.15;99578.06;4485101;32;20355;-70
2022/07/17 05:26:49;;;;;;;2.72;1.02;;;;;;;16.64;52.81;99587.19;4485139;32;20548;-70
2022/07/17 05:29:16;;;;;;;2.85;0.95;;;;;;;16.63;52.94;99580.22;4485412;32;20093;-70
2022/07/17 05:31:44;;;;;;;2.85;0.80;;;;;;;16.60;53.12;99577.09;4485283;31;20557;-70
2022/07/17 05:34:11;;;;;;;2.12;0.80;;;;;;;16.71;53.10;99582.09;4485279;31;20088;-70
2022/07/17 05:36:38;;;;;;;1.17;0.90;;;;;;;16.83;52.56;99586.12;4485122;31;20091;-70
2022/07/17 05:39:06;;;;;;;1.25;0.75;;;;;;;16.84;52.88;99587.78;4485216;31;20637;-70
2022/07/17 05:41:33;;;;;;;2.22;1.00;;;;;;;16.94;52.88;99584.22;4485194;31;20108;-70
2022/07/17 05:44:01;;;;;;;1.45;1.05;;;;;;;17.06;52.27;99590.91;4485180;31;20101;-70
2022/07/17 05:46:28;;;;;;;1.45;0.68;;;;;;;16.98;52.84;99589.03;4484674;32;20545;-70
2022/07/17 05:48:56;;;;;;;3.97;2.20;;;;;;;17.17;52.16;99589.81;4485003;31;20144;-71
2022/07/17 05:51:23;;;;;;;2.87;1.15;;;;;;;17.05;52.69;99594.56;4484960;31;20379;-70
2022/07/17 05:53:51;;;;;;;2.40;0.90;;;;;;;17.06;52.80;99598.84;4484953;32;20445;-70
2022/07/17 05:56:19;;;;;;;1.52;0.75;;;;;;;17.13;52.64;99602.53;4484218;31;20084;-70
2022/07/17 05:58:46;;;;;;;2.87;0.90;;;;;;;17.11;52.79;99604.50;4484839;31;20084;-70
2022/07/17 06:01:14;;;;;;;2.92;0.95;;;;;;;17.17;52.35;99597.75;4484803;31;20814;-70
2022/07/17 06:03:41;;;;;;;1.70;0.75;;;;;;;17.19;52.09;99599.22;4485026;31;20100;-70
2022/07/17 06:06:08;;;;;;;2.25;0.93;;;;;;;17.28;51.69;99604.59;4484857;31;20514;-70
2022/07/17 06:08:35;;;;;;;2.12;0.80;;;;;;;17.36;52.10;99608.06;4485114;32;20405;-70
2022/07/17 06:11:03;;;;;;;1.12;0.90;;;;;;;17.61;51.77;99608.16;4484692;31;20100;-70
2022/07/17 06:13:30;;;;;;;1.33;0.70;;;;;;;17.69;51.44;99607.34;4484725;31;20085;-70
2022/07/17 06:15:58;;;;;;;2.35;0.85;;;;;;;17.77;49.56;99610.00;4484249;32;20419;-70
2022/07/17 06:18:26;;;;;;;3.50;0.88;;;;;;;17.91;49.47;99616.50;4484749;32;20135;-70
2022/07/17 06:20:53;;;;;;;2.87;1.40;;;;;;;18.05;49.64;99613.22;4484817;31;20472;-71
2022/07/17 06:23:20;;;;;;;0.70;0.70;;;;;;;18.22;49.58;99614.06;4484489;32;20360;-70
2022/07/17 06:25:48;;;;;;;2.35;1.02;;;;;;;18.06;49.43;99608.75;4484733;32;20146;-70
2022/07/17 06:28:15;;;;;;;2.75;0.90;;;;;;;18.20;49.68;99616.06;4484790;32;20103;-70
2022/07/17 06:30:43;;;;;;;3.25;0.80;;;;;;;18.13;49.34;99622.19;4484735;32;20101;-70
2022/07/17 06:33:10;;;;;;;2.28;0.77;;;;;;;18.30;48.74;99618.53;4484909;31;20111;-70
2022/07/17 06:35:37;;;;;;;2.28;0.80;;;;;;;18.24;49.47;99617.38;4484664;32;20088;-70
2022/07/17 06:38:11;;;;;;;2.90;0.90;;;;;;;18.48;49.13;99617.53;4483218;32;20180;-71
2022/07/17 06:40:39;;;;;;;0.93;0.70;;;;;;;18.72;48.22;99614.84;4484857;31;20081;-71
2022/07/17 06:43:06;;;;;;;2.53;0.73;;;;;;;18.62;47.02;99620.34;4484421;31;20161;-70
2022/07/17 06:45:34;;;;;;;2.20;0.90;;;;;;;18.79;46.56;99623.78;4482778;32;20127;-70
2022/07/17 06:48:01;;;;;;;0.95;0.70;;;;;;;18.93;46.03;99627.59;4484442;31;20088;-70
2022/07/17 06:50:29;;;;;;;2.17;0.70;;;;;;;18.96;44.41;99626.44;4484436;32;20096;-70
2022/07/17 06:52:58;;;;;;;1.00;0.88;;;;;;;19.01;44.46;99626.75;4484253;32;20100;-70
2022/07/17 06:55:25;;;;;;;0.93;0.60;;;;;;;18.85;44.59;99619.66;4484395;31;20110;-70
2022/07/17 06:57:52;;;;;;;3.00;0.90;;;;;;;18.89;43.55;99620.97;4483890;31;20506;-70
2022/07/17 07:00:19;;;;;;;2.58;0.60;;;;;;;18.86;42.67;99629.25;4484195;31;20096;-70
2022/07/17 07:02:46;;;;;;;4.87;0.70;;;;;;;18.93;42.04;99616.97;4484049;31;20482;-71
2022/07/17 07:05:13;;;;;;;1.58;0.60;;;;;;;19.12;42.75;99615.75;4484089;31;20397;-70
2022/07/17 07:07:41;;;;;;;1.85;0.82;;;;;;;18.96;42.06;99626.44;4484650;32;20101;-70
2022/07/17 07:10:08;;;;;;;1.45;0.68;;;;;;;19.13;42.99;99621.88;4485010;32;20088;-70
2022/07/17 07:12:36;;;;;;;1.75;0.60;;;;;;;19.29;40.78;99624.50;4486220;31;20644;-71
2022/07/17 07:15:04;;;;;;;2.78;0.75;;;;;;;19.09;41.71;99621.41;4486229;32;20591;-70
2022/07/17 07:17:38;;;;;;;1.00;0.47;;;;;;;19.20;41.05;99625.53;4485767;31;20148;-70
2022/07/17 07:20:06;;;;;;;4.93;0.65;;;;;;;19.30;40.83;99622.66;4486087;32;20149;-70
2022/07/17 07:22:33;;;;;;;5.37;0.73;;;;;;;19.49;38.83;99627.53;4486062;31;20092;-70
2022/07/17 07:25:01;;;;;;;2.75;0.70;;;;;;;19.62;38.53;99621.69;4486136;31;20522;-70
2022/07/17 07:27:29;;;;;;;1.87;0.70;;;;;;;19.62;38.25;99632.31;4485849;31;20527;-71
2022/07/17 07:29:56;;;;;;;2.05;1.42;;;;;;;19.73;37.78;99633.75;4486025;31;20123;-70
2022/07/17 07:32:23;;;;;;;1.95;0.62;;;;;;;19.80;36.95;99633.88;4486064;32;20091;-71
2022/07/17 07:34:50;;;;;;;0.62;0.40;;;;;;;19.62;36.86;99634.97;4486038;31;20111;-70
2022/07/17 07:37:17;;;;;;;1.83;0.60;;;;;;;19.86;36.50;99630.53;4486244;32;20100;-70
2022/07/17 07:39:44;;;;;;;1.75;0.45;;;;;;;19.79;35.28;99617.12;4485871;31;20096;-71
2022/07/17 07:42:12;;;;;;;1.55;0.60;;;;;;;19.87;36.19;99626.87;4485926;31;20496;-70
2022/07/17 07:44:39;;;;;;;2.10;0.45;;;;;;;19.93;36.59;99634.13;4485724;32;20088;-70
2022/07/17 07:47:06;;;;;;;1.65;0.47;;;;;;;20.10;35.25;99632.19;4485630;32;20167;-70
2022/07/17 07:49:34;;;;;;;3.90;0.57;;;;;;;19.78;35.47;99622.59;4485832;31;20179;-70
2022/07/17 07:52:06;;;;;;;2.58;0.62;;;;;;;19.93;35.82;99623.50;4485887;32;20147;-70
2022/07/17 07:54:35;;;;;;;2.37;0.50;;;;;;;20.01;36.57;99631.41;4485800;32;20122;-70
2022/07/17 07:57:03;;;;;;;1.45;0.50;;;;;;;19.85;36.02;99626.22;4485848;31;20168;-71
2022/07/17 07:59:32;;;;;;;0.68;0.55;;;;;;;19.83;36.29;99638.84;4485556;31;20111;-70
2022/07/17 08:02:00;;;;;;;2.67;0.57;;;;;;;20.16;36.15;99622.66;4485897;32;20567;-70
2022/07/17 08:04:28;;;;;;;1.83;0.80;;;;;;;20.33;36.91;99631.34;4485659;31;20114;-71
2022/07/17 08:06:55;;;;;;;1.73;0.60;;;;;;;20.47;36.88;99627.06;4485853;31;20092;-70
2022/07/17 08:09:23;;;;;;;3.10;1.00;;;;;;;20.25;37.55;99632.25;4485740;31;20088;-70
2022/07/17 08:11:50;;;;;;;3.62;0.82;;;;;;;20.38;38.17;99642.28;4485716;32;20088;-70
2022/07/17 08:14:17;;;;;;;1.33;0.70;;;;;;;20.47;37.87;99635.03;4485573;32;20100;-71
2022/07/17 08:16:45;;;;;;;4.45;0.80;;;;;;;20.63;37.31;99629.56;4485266;31;20482;-71
2022/07/17 08:19:13;;;;;;;2.30;0.60;;;;;;;20.74;37.98;99642.50;4484969;32;20084;-71
2022/07/17 08:21:40;;;;;;;2.83;0.57;;;;;;;20.74;37.73;99636.31;4485633;31;20123;-71
2022/07/17 08:24:07;;;;;;;2.65;0.68;;;;;;;20.96;35.80;99639.94;4485346;32;20157;-70
2022/07/17 08:26:35;;;;;;;3.45;0.90;;;;;;;20.74;35.90;99647.81;4485610;32;20522;-71
2022/07/17 08:29:02;;;;;;;2.08;0.57;;;;;;;21.06;35.49;99644.97;4485577;31;20081;-71
2022/07/17 08:31:29;;;;;;;1.60;0.40;;;;;;;21.36;34.27;99635.16;4485546;32;20104;-71
2022/07/17 08:33:57;;;;;;;3.12;0.60;;;;;;;21.44;33.47;99632.38;4484279;32;20130;-71
2022/07/17 08:36:24;;;;;;;1.85;0.70;;;;;;;21.42;34.14;99647.72;4485621;32;20093;-71
2022/07/17 08:38:51;;;;;;;2.83;0.80;;;;;;;21.47;34.92;99641.00;4485434;31;20115;-71
2022/07/17 08:41:22;;;;;;;1.48;0.52;;;;;;;21.74;34.55;99647.50;4485417;31;20497;-71
2022/07/17 08:43:50;;;;;;;1.33;0.60;;;;;;;21.21;34.60;99636.97;4485494;31;20127;-71
2022/07/17 08:46:19;;;;;;;0.82;0.57;;;;;;;21.33;35.37;99630.16;4485468;32;20088;-70
2022/07/17 08:48:47;;;;;;;4.25;0.55;;;;;;;21.39;35.30;99634.78;4484184;32;20382;-70
2022/07/17 08:51:16;;;;;;;1.65;0.60;;;;;;;21.74;34.90;99637.66;4484355;32;20107;-71
2022/07/17 08:53:44;;;;;;;1.80;0.70;;;;;;;22.10;34.13;99635.97;4485518;32;20408;-71
2022/07/17 08:56:11;;;;;;;5.22;0.65;;;;;;;21.62;34.10;99634.66;4485737;31;20093;-71
2022/07/17 08:58:38;;;;;;;2.80;0.80;;;;;;;21.74;34.11;99640.34;4485282;31;20096;-71
2022/07/17 09:01:06;;;;;;;0.40;0.40;;;;;;;21.66;33.92;99650.28;4485489;31;20123;-71
2022/07/17 09:03:33;;;;;;;2.33;0.70;;;;;;;21.90;33.98;99641.09;4485387;31;20499;-71
2022/07/17 09:06:19;;;;;;;1.55;0.40;;;;;;;22.03;33.93;99635.06;4485310;31;20100;-71
2022/07/17 09:08:47;;;;;;;2.37;0.60;;;;;;;22.22;33.24;99633.63;4485299;31;20110;-71
2022/07/17 09:11:14;;;;;;;2.50;0.65;;;;;;;22.37;32.09;99623.72;4485418;31;20426;-71
2022/07/17 09:13:47;;;;;;;2.28;0.60;;;;;;;22.10;32.18;99627.97;4485309;32;20095;-71
2022/07/17 09:16:15;;;;;;;2.67;0.40;;;;;;;22.01;32.58;99642.44;4484888;32;20485;-71
2022/07/17 09:18:51;;;;;;;3.20;0.73;;;;;;;22.33;31.89;99631.28;4478983;32;196203;-71
2022/07/17 09:21:20;;;;;;;3.22;0.60;;;;;;;22.12;31.67;99633.91;4485512;32;20101;-71
2022/07/17 09:24:02;;;;;;;2.60;0.50;;;;;;;22.32;32.06;99621.63;4485097;31;20118;-71
2022/07/17 09:26:32;;;;;;;0.30;0.30;;;;;;;22.33;30.09;99623.28;4485444;31;20544;-71
2022/07/17 09:29:03;;;;;;;1.27;0.50;;;;;;;22.35;31.17;99641.78;4485149;31;20429;-70
2022/07/17 09:31:32;;;;;;;0.70;0.47;;;;;;;22.17;30.51;99636.84;4484163;31;20088;-71
2022/07/17 09:33:59;;;;;;;1.48;0.70;;;;;;;22.19;30.47;99644.66;4485099;31;20104;-71
2022/07/17 09:36:27;;;;;;;1.23;0.40;;;;;;;22.06;29.76;99634.69;4485361;31;20092;-71
2022/07/17 09:38:57;;;;;;;5.72;0.73;;;;;;;22.40;30.51;99626.00;4485128;31;20166;-71
2022/07/17 09:41:26;;;;;;;0.65;0.52;;;;;;;22.46;30.33;99619.87;4483970;32;20524;-71
2022/07/17 09:43:57;;;;;;;2.15;0.60;;;;;;;22.46;30.02;99629.75;4485186;32;20088;-71
2022/07/17 09:46:26;;;;;;;1.67;0.40;;;;;;;22.36;30.12;99614.03;4484951;31;20077;-71
2022/07/17 09:49:03;;;;;;;2.67;0.43;;;;;;;22.59;30.04;99618.31;4484025;32;20535;-71
2022/07/17 09:51:37;;;;;;;2.55;0.52;;;;;;;22.70;30.08;99627.66;4485115;31;20085;-71
2022/07/17 09:54:10;;;;;;;0.88;0.50;;;;;;;22.63;29.62;99615.06;4485144;32;20083;-71
2022/07/17 09:56:39;;;;;;;2.55;0.40;;;;;;;22.85;29.85;99613.16;4484931;32;20138;-70
2022/07/17 09:59:10;;;;;;;1.25;0.45;;;;;;;22.72;29.97;99622.94;4484883;31;20100;-71
2022/07/17 10:01:39;;;;;;;1.10;0.47;;;;;;;22.41;30.21;99619.63;4484911;31;20129;-71
2022/07/17 10:04:07;;;;;;;1.35;0.60;;;;;;;22.58;29.51;99628.19;4485214;31;20124;-71
2022/07/17 10:06:34;;;;;;;1.10;0.70;;;;;;;22.33;30.36;99617.94;4484821;31;20122;-71
2022/07/17 10:09:02;;;;;;;1.98;0.40;;;;;;;22.86;30.38;99608.62;4484981;31;20152;-71
2022/07/17 10:11:32;;;;;;;2.90;0.82;;;;;;;22.99;30.03;99613.25;4484769;31;20104;-70
2022/07/17 10:14:05;;;;;;;0.52;0.47;;;;;;;23.24;29.27;99623.47;4483700;32;20104;-71
2022/07/17 10:16:33;;;;;;;;;;;;;;;23.12;28.95;99625.88;4484784;31;20082;-71
2022/07/17 10:19:02;;;;;;;2.05;0.62;;;;;;;23.14;30.10;99626.50;4484888;31;20039;-71
2022/07/17 10:21:31;;;;;;;2.00;0.50;;;;;;;23.10;29.46;99619.91;4484559;32;20101;-71
2022/07/17 10:23:59;;;;;;;3.03;0.60;;;;;;;23.29;28.62;99629.06;4484511;31;20119;-71
2022/07/17 10:26:34;;;;;;;1.77;0.80;;;;;;;23.35;29.18;99609.53;4484749;31;20077;-71
2022/07/17 10:29:03;;;;;;;3.12;0.70;;;;;;;23.43;29.82;99609.34;4484854;32;20068;-71
2022/07/17 10:31:30;;;;;;;2.55;0.47;;;;;;;23.27;29.54;99604.34;4484422;31;20405;-71
2022/07/17 10:34:02;;;;;;;1.75;0.65;;;;;;;23.26;29.61;99608.88;4484492;31;20450;-71
2022/07/17 10:36:42;;;;;;;3.70;0.60;;;;;;;23.64;28.62;99604.91;4484566;31;20112;-71
2022/07/17 10:39:13;;;;;;;1.67;0.65;;;;;;;23.41;28.15;99602.53;4484313;31;20141;-70
2022/07/17 10:41:41;;;;;;;1.58;0.60;;;;;;;23.56;28.07;99582.66;4485023;31;20088;-71
2022/07/17 10:44:08;;;;;;;3.35;0.52;;;;;;;23.47;28.62;99602.59;4486405;31;20092;-71
2022/07/17 10:46:36;;;;;;;1.12;0.70;;;;;;;23.54;29.13;99605.25;4485790;31;20093;-71
2022/07/17 10:49:04;;;;;;;3.35;0.60;;;;;;;23.39;29.78;99608.09;4486332;31;20093;-71
2022/07/17 10:51:32;;;;;;;2.22;0.70;;;;;;;23.82;27.78;99599.78;4486235;31;20143;-71
2022/07/17 10:53:59;;;;;;;2.30;0.65;;;;;;;24.04;27.32;99605.81;4486335;31;20500;-71
2022/07/17 10:56:27;;;;;;;1.02;0.50;;;;;;;23.59;27.68;99599.31;4486290;31;20459;-71
2022/07/17 10:59:01;;;;;;;1.73;0.43;;;;;;;23.65;28.43;99615.41;4486059;31;20183;-71
2022/07/17 11:01:29;;;;;;;2.05;0.70;;;;;;;23.69;28.57;99603.25;4486197;31;20091;-71
2022/07/17 11:04:00;;;;;;;1.52;0.52;;;;;;;24.09;27.74;99597.19;4485068;32;20126;-71
2022/07/17 11:06:32;;;;;;;1.60;0.80;;;;;;;23.90;27.83;99583.56;4486103;31;20123;-71
2022/07/17 11:09:00;;;;;;;0.68;0.47;;;;;;;24.40;28.25;99598.41;4486080;31;20073;-71
2022/07/17 11:11:38;;;;;;;2.12;0.47;;;;;;;24.24;26.62;99589.78;4486178;31;20146;-71
2022/07/17 11:14:14;;;;;;;1.40;0.60;;;;;;;24.21;25.56;99574.13;4486333;31;20438;-71
2022/07/17 11:16:51;;;;;;;1.33;0.45;;;;;;;24.36;26.07;99578.41;4485698;31;20181;-71
2022/07/17 11:19:38;;;;;;;2.15;0.52;;;;;;;24.50;25.84;99572.03;4486064;31;20068;-71
2022/07/17 11:22:09;;;;;;;2.60;0.70;;;;;;;24.42;26.89;99589.16;4485869;31;20119;-71
2022/07/17 11:24:39;;;;;;;1.80;0.73;;;;;;;24.29;26.84;99582.97;4486090;31;20573;-71
2022/07/17 11:27:08;;;;;;;1.73;0.55;;;;;;;24.19;27.26;99578.03;4486204;31;20144;-71
2022/07/17 11:29:37;;;;;;;1.05;0.40;;;;;;;24.19;27.12;99572.66;4486328;31;20088;-71
2022/07/17 11:32:05;;;;;;;2.15;0.75;;;;;;;24.77;26.68;99572.84;4485904;31;20096;-71
2022/07/17 11:34:32;;;;;;;0.90;0.50;;;;;;;25.12;25.39;99571.69;4485966;31;20096;-71
2022/07/17 11:37:01;;;;;;;0.90;0.45;;;;;;;25.43;24.67;99570.12;4486005;32;20603;-71
2022/07/17 11:39:43;;;;;;;1.45;0.50;;;;;;;25.23;23.79;99562.97;4485911;31;20089;-71